createdAt,value
2018-12-25T00:00:10.819Z,1.64
2018-12-25T00:01:10.811Z,1.64
2018-12-25T00:02:10.805Z,1.65
2018-12-25T00:03:10.797Z,1.64
2018-12-25T00:04:10.830Z,1.68
2018-12-25T00:05:10.785Z,1.64
2018-12-25T00:06:10.778Z,1.62
2018-12-25T00:07:10.772Z,1.64
2018-12-25T00:08:10.763Z,1.68
2018-12-25T00:09:10.786Z,1.62
2018-12-25T00:10:10.753Z,1.64
2018-12-25T00:11:10.759Z,1.69
2018-12-25T00:12:10.737Z,1.62
2018-12-25T00:13:10.729Z,1.60
2018-12-25T00:14:10.753Z,1.55
2018-12-25T00:15:10.745Z,1.64
2018-12-25T00:16:10.707Z,1.62
2018-12-25T00:17:10.707Z,1.64
2018-12-25T00:18:10.697Z,1.69
2018-12-25T00:19:10.689Z,1.73
2018-12-25T00:20:10.709Z,1.62
2018-12-25T00:21:10.676Z,1.79
2018-12-25T00:22:10.668Z,1.76
2018-12-25T00:23:10.660Z,1.73
2018-12-25T00:24:10.656Z,1.75
2018-12-25T00:25:10.676Z,1.71
2018-12-25T00:26:10.641Z,1.71
2018-12-25T00:27:10.635Z,1.72
2018-12-25T00:28:10.628Z,1.71
2018-12-25T00:29:10.619Z,1.71
2018-12-25T00:30:10.642Z,1.71
2018-12-25T00:31:10.609Z,1.72
2018-12-25T00:32:10.599Z,1.75
2018-12-25T00:33:10.595Z,1.78
2018-12-25T00:34:10.588Z,1.75
2018-12-25T00:35:10.610Z,1.73
2018-12-25T00:36:10.576Z,1.76
2018-12-25T00:37:10.566Z,1.61
2018-12-25T00:38:10.563Z,1.62
2018-12-25T00:39:10.555Z,1.64
2018-12-25T00:40:10.576Z,1.65
2018-12-25T00:41:10.543Z,1.68
2018-12-25T00:42:10.535Z,1.76
2018-12-25T00:43:10.527Z,1.73
2018-12-25T00:44:10.520Z,1.83
2018-12-25T00:45:10.544Z,1.79
2018-12-25T00:46:10.585Z,1.87
2018-12-25T00:47:10.502Z,1.87
2018-12-25T00:48:10.495Z,1.87
2018-12-25T00:49:14.793Z,1.85
2018-12-25T00:50:10.511Z,1.87
2018-12-25T00:51:10.506Z,1.90
2018-12-25T00:52:10.579Z,1.82
2018-12-25T00:53:10.462Z,1.90
2018-12-25T00:54:10.454Z,1.85
2018-12-25T00:55:10.450Z,1.89
2018-12-25T00:56:10.469Z,1.83
2018-12-25T00:57:10.435Z,1.85
2018-12-25T00:58:10.429Z,1.90
2018-12-25T00:59:10.422Z,1.85
2018-12-25T01:00:10.415Z,1.83
2018-12-25T01:01:10.433Z,1.90
2018-12-25T01:02:10.403Z,1.83
2018-12-25T01:03:10.398Z,1.82
2018-12-25T01:04:10.390Z,1.90
2018-12-25T01:05:10.381Z,1.87
2018-12-25T01:06:10.405Z,2.02
2018-12-25T01:07:10.370Z,1.90
2018-12-25T01:08:10.361Z,1.98
2018-12-25T01:09:10.358Z,1.89
2018-12-25T01:10:10.380Z,1.90
2018-12-25T01:11:10.342Z,1.97
2018-12-25T01:12:10.339Z,2.02
2018-12-25T01:13:10.329Z,1.94
2018-12-25T01:14:10.320Z,1.94
2018-12-25T01:15:10.346Z,1.97
2018-12-25T01:16:10.310Z,1.99
2018-12-25T01:17:10.305Z,2.01
2018-12-25T01:18:10.299Z,1.99
2018-12-25T01:19:10.287Z,2.04
2018-12-25T01:20:10.312Z,1.91
2018-12-25T01:21:10.274Z,1.97
2018-12-25T01:22:10.275Z,1.99
2018-12-25T01:23:10.266Z,1.98
2018-12-25T01:24:10.257Z,1.97
2018-12-25T01:25:10.281Z,1.98
2018-12-25T01:26:10.353Z,1.98
2018-12-25T01:27:10.243Z,2.06
2018-12-25T01:28:10.235Z,1.99
2018-12-25T01:29:10.224Z,1.99
2018-12-25T01:30:10.248Z,1.99
2018-12-25T01:31:10.240Z,2.01
2018-12-25T01:32:10.203Z,1.99
2018-12-25T01:33:10.200Z,2.09
2018-12-25T01:34:10.195Z,2.10
2018-12-25T01:35:10.182Z,2.09
2018-12-25T01:36:10.208Z,1.98
2018-12-25T01:37:10.169Z,2.06
2018-12-25T01:38:10.170Z,2.08
2018-12-25T01:39:10.159Z,1.94
2018-12-25T01:40:10.184Z,1.94
2018-12-25T01:41:10.169Z,1.93
2018-12-25T01:42:10.140Z,1.97
2018-12-25T01:43:10.137Z,1.97
2018-12-25T01:44:10.127Z,2.02
2018-12-25T01:45:10.172Z,2.01
2018-12-25T01:46:10.139Z,2.08
2018-12-25T01:47:10.103Z,2.02
2018-12-25T01:48:10.098Z,2.04
2018-12-25T01:49:10.092Z,2.01
2018-12-25T01:50:10.088Z,2.01
2018-12-25T01:51:10.110Z,2.01
2018-12-25T01:52:10.075Z,2.01
2018-12-25T01:53:10.065Z,1.98
2018-12-25T01:54:10.067Z,2.01
2018-12-25T01:55:10.051Z,1.98
2018-12-25T01:56:10.076Z,2.02
2018-12-25T01:57:10.042Z,1.98
2018-12-25T01:58:10.033Z,2.04
2018-12-25T01:59:10.026Z,2.08
2018-12-25T02:00:10.022Z,2.01
2018-12-25T02:01:10.045Z,2.09
2018-12-25T02:02:10.040Z,2.10
2018-12-25T02:03:09.998Z,2.09
2018-12-25T02:04:09.997Z,2.12
2018-12-25T02:05:09.989Z,2.12
2018-12-25T02:06:09.982Z,2.09
2018-12-25T02:07:10.004Z,1.97
2018-12-25T02:08:09.969Z,2.09
2018-12-25T02:09:09.964Z,2.12
2018-12-25T02:10:09.957Z,2.17
2018-12-25T02:11:09.974Z,2.09
2018-12-25T02:12:09.947Z,2.08
2018-12-25T02:13:09.937Z,2.06
2018-12-25T02:14:09.933Z,2.01
2018-12-25T02:15:09.922Z,2.06
2018-12-25T02:16:09.948Z,2.13
2018-12-25T02:17:09.909Z,2.10
2018-12-25T02:18:09.904Z,2.13
2018-12-25T02:19:09.896Z,2.16
2018-12-25T02:20:09.898Z,2.12
2018-12-25T02:21:09.909Z,2.12
2018-12-25T02:22:09.909Z,2.09
2018-12-25T02:23:09.871Z,2.12
2018-12-25T02:24:09.864Z,2.02
2018-12-25T02:25:09.857Z,2.13
2018-12-25T02:26:09.851Z,2.10
2018-12-25T02:27:09.873Z,2.12
2018-12-25T02:28:09.839Z,2.12
2018-12-25T02:29:09.836Z,1.99
2018-12-25T02:30:09.837Z,1.99
2018-12-25T02:31:09.849Z,2.04
2018-12-25T02:32:09.816Z,1.98
2018-12-25T02:33:09.804Z,2.02
2018-12-25T02:34:09.798Z,2.10
2018-12-25T02:35:09.797Z,2.09
2018-12-25T02:36:09.817Z,2.09
2018-12-25T02:37:09.900Z,2.15
2018-12-25T02:38:09.776Z,2.13
2018-12-25T02:39:09.767Z,2.10
2018-12-25T02:40:09.764Z,2.12
2018-12-25T02:41:09.781Z,2.13
2018-12-25T02:42:09.752Z,2.13
2018-12-25T02:43:09.742Z,2.17
2018-12-25T02:44:09.739Z,2.13
2018-12-25T02:45:09.731Z,2.22
2018-12-25T02:46:09.751Z,2.09
2018-12-25T02:47:09.720Z,2.13
2018-12-25T02:48:09.711Z,2.12
2018-12-25T02:49:09.707Z,2.04
2018-12-25T02:50:09.730Z,2.13
2018-12-25T02:51:09.695Z,1.98
2018-12-25T02:52:09.710Z,2.08
2018-12-25T02:53:09.677Z,1.99
2018-12-25T02:54:09.686Z,2.12
2018-12-25T02:55:09.666Z,2.06
2018-12-25T02:56:09.689Z,2.12
2018-12-25T02:57:09.665Z,2.15
2018-12-25T02:58:09.646Z,2.06
2018-12-25T02:59:09.753Z,2.04
2018-12-25T03:00:09.633Z,2.10
2018-12-25T03:01:09.657Z,2.08
2018-12-25T03:02:09.626Z,2.10
2018-12-25T03:03:09.615Z,2.12
2018-12-25T03:04:09.609Z,2.10
2018-12-25T03:05:09.601Z,2.12
2018-12-25T03:06:09.630Z,2.13
2018-12-25T03:07:09.616Z,1.99
2018-12-25T03:08:09.582Z,2.13
2018-12-25T03:09:09.574Z,2.15
2018-12-25T03:10:09.577Z,2.16
2018-12-25T03:11:09.567Z,2.12
2018-12-25T03:12:09.588Z,2.12
2018-12-25T03:13:09.545Z,2.15
2018-12-25T03:14:09.546Z,2.16
2018-12-25T03:15:09.544Z,2.12
2018-12-25T03:16:09.532Z,2.17
2018-12-25T03:17:09.549Z,2.12
2018-12-25T03:18:09.523Z,2.12
2018-12-25T03:19:09.507Z,2.16
2018-12-25T03:20:09.512Z,2.12
2018-12-25T03:21:09.506Z,2.12
2018-12-25T03:22:09.529Z,2.12
2018-12-25T03:23:09.497Z,2.09
2018-12-25T03:24:09.479Z,2.20
2018-12-25T03:25:09.475Z,2.16
2018-12-25T03:26:09.470Z,2.20
2018-12-25T03:27:09.491Z,2.19
2018-12-25T03:28:09.483Z,2.20
2018-12-25T03:29:09.447Z,2.15
2018-12-25T03:30:09.478Z,2.17
2018-12-25T03:31:09.450Z,2.27
2018-12-25T03:32:09.429Z,2.22
2018-12-25T03:33:09.454Z,2.27
2018-12-25T03:34:09.419Z,2.12
2018-12-25T03:35:09.412Z,2.20
2018-12-25T03:36:09.405Z,2.27
2018-12-25T03:37:09.438Z,2.30
2018-12-25T03:38:09.395Z,2.30
2018-12-25T03:39:09.392Z,2.19
2018-12-25T03:40:09.386Z,2.31
2018-12-25T03:41:09.371Z,2.28
2018-12-25T03:42:09.395Z,2.28
2018-12-25T03:43:09.358Z,2.23
2018-12-25T03:44:09.364Z,2.26
2018-12-25T03:45:09.356Z,2.34
2018-12-25T03:46:09.346Z,2.30
2018-12-25T03:47:09.362Z,2.28
2018-12-25T03:48:09.332Z,2.40
2018-12-25T03:49:09.323Z,2.28
2018-12-25T03:50:10.859Z,2.27
2018-12-25T03:51:09.308Z,2.20
2018-12-25T03:52:09.331Z,2.31
2018-12-25T03:53:09.296Z,2.35
2018-12-25T03:54:09.291Z,2.27
2018-12-25T03:55:09.294Z,2.34
2018-12-25T03:56:09.278Z,2.28
2018-12-25T03:57:09.291Z,2.41
2018-12-25T03:58:09.266Z,2.28
2018-12-25T03:59:09.268Z,2.30
2018-12-25T04:00:09.255Z,2.19
2018-12-25T04:01:09.248Z,2.28
2018-12-25T04:02:09.270Z,2.30
2018-12-25T04:03:09.267Z,2.41
2018-12-25T04:04:09.226Z,2.30
2018-12-25T04:05:09.220Z,2.27
2018-12-25T04:06:09.214Z,2.33
2018-12-25T04:07:09.201Z,2.26
2018-12-25T04:08:09.229Z,2.38
2018-12-25T04:09:09.195Z,2.44
2018-12-25T04:10:09.189Z,2.30
2018-12-25T04:11:09.182Z,2.26
2018-12-25T04:12:09.177Z,2.41
2018-12-25T04:13:09.245Z,2.40
2018-12-25T04:14:09.164Z,2.27
2018-12-25T04:15:09.156Z,2.33
2018-12-25T04:16:09.150Z,2.26
2018-12-25T04:17:09.146Z,2.30
2018-12-25T04:18:09.165Z,2.40
2018-12-25T04:19:09.132Z,2.31
2018-12-25T04:20:09.124Z,2.30
2018-12-25T04:21:09.121Z,2.33
2018-12-25T04:22:09.111Z,2.34
2018-12-25T04:23:09.140Z,2.37
2018-12-25T04:24:09.100Z,2.31
2018-12-25T04:25:09.092Z,2.34
2018-12-25T04:26:09.099Z,2.26
2018-12-25T04:27:09.079Z,2.40
2018-12-25T04:28:09.100Z,2.30
2018-12-25T04:29:09.070Z,2.26
2018-12-25T04:30:09.059Z,2.35
2018-12-25T04:31:09.059Z,2.23
2018-12-25T04:32:09.046Z,2.41
2018-12-25T04:33:09.078Z,2.34
2018-12-25T04:34:09.036Z,2.26
2018-12-25T04:35:09.031Z,2.26
2018-12-25T04:36:09.021Z,2.26
2018-12-25T04:37:09.014Z,2.28
2018-12-25T04:38:09.035Z,2.23
2018-12-25T04:39:09.142Z,2.26
2018-12-25T04:40:09.000Z,2.28
2018-12-25T04:41:09.000Z,2.23
2018-12-25T04:42:08.984Z,2.20
2018-12-25T04:43:09.007Z,2.12
2018-12-25T04:44:08.970Z,2.13
2018-12-25T04:45:08.967Z,2.09
2018-12-25T04:46:08.960Z,2.16
2018-12-25T04:47:08.953Z,2.26
2018-12-25T04:48:08.975Z,2.12
2018-12-25T04:49:08.929Z,2.17
2018-12-25T04:50:08.930Z,2.16
2018-12-25T04:51:08.929Z,2.22
2018-12-25T04:52:08.921Z,2.16
2018-12-25T04:53:08.943Z,2.20
2018-12-25T04:54:08.913Z,2.15
2018-12-25T04:55:08.902Z,2.13
2018-12-25T04:56:08.896Z,2.16
2018-12-25T04:57:08.888Z,2.16
2018-12-25T04:58:08.916Z,2.23
2018-12-25T04:59:08.893Z,2.27
2018-12-25T05:00:08.868Z,2.28
2018-12-25T05:01:08.861Z,2.27
2018-12-25T05:02:08.852Z,2.22
2018-12-25T05:03:08.850Z,2.15
2018-12-25T05:04:08.878Z,2.22
2018-12-25T05:05:08.838Z,2.26
2018-12-25T05:06:08.832Z,2.34
2018-12-25T05:07:08.820Z,2.23
2018-12-25T05:08:08.818Z,2.20
2018-12-25T05:09:08.838Z,2.13
2018-12-25T05:10:08.804Z,2.27
2018-12-25T05:11:08.801Z,2.23
2018-12-25T05:12:08.792Z,2.30
2018-12-25T05:13:08.786Z,2.28
2018-12-25T05:14:08.801Z,2.23
2018-12-25T05:15:08.773Z,2.22
2018-12-25T05:16:08.762Z,2.30
2018-12-25T05:17:08.761Z,2.27
2018-12-25T05:18:08.751Z,2.28
2018-12-25T05:19:08.778Z,2.20
2018-12-25T05:20:08.739Z,2.22
2018-12-25T05:21:08.735Z,2.20
2018-12-25T05:22:08.724Z,2.31
2018-12-25T05:23:08.719Z,2.31
2018-12-25T05:24:08.745Z,2.23
2018-12-25T05:25:08.708Z,2.33
2018-12-25T05:26:08.703Z,2.23
2018-12-25T05:27:08.696Z,2.33
2018-12-25T05:28:08.693Z,2.22
2018-12-25T05:29:08.712Z,2.31
2018-12-25T05:30:08.674Z,2.27
2018-12-25T05:31:08.671Z,2.23
2018-12-25T05:32:08.659Z,2.26
2018-12-25T05:33:08.659Z,2.31
2018-12-25T05:34:08.681Z,2.28
2018-12-25T05:35:08.675Z,2.28
2018-12-25T05:36:08.635Z,2.27
2018-12-25T05:37:08.622Z,2.20
2018-12-25T05:38:08.626Z,2.35
2018-12-25T05:39:08.621Z,2.26
2018-12-25T05:40:08.635Z,2.41
2018-12-25T05:41:08.607Z,2.46
2018-12-25T05:42:08.602Z,2.35
2018-12-25T05:43:08.594Z,2.35
2018-12-25T05:44:08.586Z,2.30
2018-12-25T05:45:08.610Z,2.34
2018-12-25T05:46:08.570Z,2.37
2018-12-25T05:47:08.572Z,2.44
2018-12-25T05:48:08.562Z,2.45
2018-12-25T05:49:08.558Z,2.44
2018-12-25T05:50:08.573Z,2.38
2018-12-25T05:51:08.547Z,2.41
2018-12-25T05:52:08.530Z,2.46
2018-12-25T05:53:08.529Z,2.44
2018-12-25T05:54:08.524Z,2.38
2018-12-25T05:55:08.555Z,2.44
2018-12-25T05:56:08.508Z,2.40
2018-12-25T05:57:08.510Z,2.46
2018-12-25T05:58:08.502Z,2.37
2018-12-25T05:59:08.495Z,2.48
2018-12-25T06:00:08.515Z,2.48
2018-12-25T06:01:08.487Z,2.45
2018-12-25T06:02:08.474Z,2.41
2018-12-25T06:03:08.473Z,2.46
2018-12-25T06:04:08.471Z,2.45
2018-12-25T06:05:08.486Z,2.48
2018-12-25T06:06:08.447Z,2.44
2018-12-25T06:07:08.442Z,2.48
2018-12-25T06:08:08.436Z,2.38
2018-12-25T06:09:08.429Z,2.40
2018-12-25T06:10:08.449Z,2.37
2018-12-25T06:11:08.442Z,2.48
2018-12-25T06:12:08.405Z,2.52
2018-12-25T06:13:08.405Z,2.44
2018-12-25T06:14:08.400Z,2.48
2018-12-25T06:15:08.392Z,2.49
2018-12-25T06:16:08.409Z,2.55
2018-12-25T06:17:08.380Z,2.49
2018-12-25T06:18:08.371Z,2.48
2018-12-25T06:19:08.369Z,2.44
2018-12-25T06:20:08.360Z,2.44
2018-12-25T06:21:08.383Z,2.52
2018-12-25T06:22:08.346Z,2.51
2018-12-25T06:23:08.343Z,2.49
2018-12-25T06:24:08.333Z,2.52
2018-12-25T06:25:08.328Z,2.48
2018-12-25T06:26:08.355Z,2.41
2018-12-25T06:27:08.317Z,2.41
2018-12-25T06:28:08.303Z,2.44
2018-12-25T06:29:08.303Z,2.44
2018-12-25T06:30:08.327Z,2.38
2018-12-25T06:31:08.291Z,2.44
2018-12-25T06:32:08.318Z,2.45
2018-12-25T06:33:08.279Z,2.44
2018-12-25T06:34:08.278Z,2.51
2018-12-25T06:35:08.270Z,2.52
2018-12-25T06:36:08.259Z,2.48
2018-12-25T06:37:08.283Z,2.48
2018-12-25T06:38:08.249Z,2.56
2018-12-25T06:39:08.242Z,2.55
2018-12-25T06:40:08.234Z,2.49
2018-12-25T06:41:08.233Z,2.53
2018-12-25T06:42:08.255Z,2.59
2018-12-25T06:43:08.217Z,2.52
2018-12-25T06:44:08.210Z,2.51
2018-12-25T06:45:08.199Z,2.55
2018-12-25T06:46:08.198Z,2.56
2018-12-25T06:47:08.222Z,2.53
2018-12-25T06:48:08.214Z,2.45
2018-12-25T06:49:08.178Z,2.56
2018-12-25T06:50:08.174Z,2.53
2018-12-25T06:51:08.163Z,2.51
2018-12-25T06:52:08.179Z,2.51
2018-12-25T06:53:08.152Z,2.49
2018-12-25T06:54:08.154Z,2.51
2018-12-25T06:55:08.142Z,2.52
2018-12-25T06:56:08.133Z,2.63
2018-12-25T06:57:08.161Z,2.61
2018-12-25T06:58:08.122Z,2.64
2018-12-25T06:59:08.109Z,2.66
2018-12-25T07:00:08.139Z,2.69
2018-12-25T07:01:08.099Z,2.59
2018-12-25T07:02:08.136Z,2.52
2018-12-25T07:03:08.085Z,2.55
2018-12-25T07:04:08.086Z,2.61
2018-12-25T07:05:08.106Z,2.64
2018-12-25T07:06:08.253Z,2.59
2018-12-25T07:07:08.058Z,2.56
2018-12-25T07:08:08.086Z,2.49
2018-12-25T07:09:08.051Z,2.56
2018-12-25T07:10:08.044Z,2.69
2018-12-25T07:11:08.040Z,2.63
2018-12-25T07:12:08.033Z,2.67
2018-12-25T07:13:08.055Z,2.66
2018-12-25T07:14:08.022Z,2.70
2018-12-25T07:15:08.017Z,2.67
2018-12-25T07:16:08.010Z,2.53
2018-12-25T07:17:08.003Z,2.66
2018-12-25T07:18:08.023Z,2.64
2018-12-25T07:19:07.991Z,2.61
2018-12-25T07:20:07.976Z,2.58
2018-12-25T07:21:12.115Z,2.64
2018-12-25T07:22:07.965Z,2.63
2018-12-25T07:23:07.994Z,2.63
2018-12-25T07:24:07.958Z,2.67
2018-12-25T07:25:07.952Z,2.63
2018-12-25T07:26:07.946Z,2.67
2018-12-25T07:27:07.938Z,2.52
2018-12-25T07:28:07.958Z,2.53
2018-12-25T07:29:07.926Z,2.53
2018-12-25T07:30:07.920Z,2.67
2018-12-25T07:31:08.001Z,2.70
2018-12-25T07:32:07.905Z,2.66
2018-12-25T07:33:07.929Z,2.67
2018-12-25T07:34:07.893Z,2.67
2018-12-25T07:35:07.888Z,2.67
2018-12-25T07:36:09.515Z,2.66
2018-12-25T07:37:07.975Z,2.64
2018-12-25T07:38:07.896Z,2.64
2018-12-25T07:39:07.865Z,2.81
2018-12-25T07:40:07.852Z,2.79
2018-12-25T07:41:07.848Z,2.71
2018-12-25T07:42:07.843Z,2.74
2018-12-25T07:43:07.872Z,2.79
2018-12-25T07:44:07.828Z,2.73
2018-12-25T07:45:07.828Z,2.73
2018-12-25T07:46:07.816Z,2.74
2018-12-25T07:47:07.816Z,2.76
2018-12-25T07:48:07.844Z,2.82
2018-12-25T07:49:07.806Z,2.70
2018-12-25T07:50:07.793Z,2.67
2018-12-25T07:51:07.819Z,2.71
2018-12-25T07:52:07.783Z,2.74
2018-12-25T07:53:07.775Z,2.66
2018-12-25T07:54:07.792Z,2.66
2018-12-25T07:55:07.763Z,2.64
2018-12-25T07:56:07.752Z,2.64
2018-12-25T07:57:07.755Z,2.64
2018-12-25T07:58:07.747Z,2.69
2018-12-25T07:59:07.768Z,2.64
2018-12-25T08:00:07.737Z,2.74
2018-12-25T08:01:07.755Z,2.64
2018-12-25T08:02:07.723Z,2.70
2018-12-25T08:03:07.718Z,2.70
2018-12-25T08:04:07.710Z,2.69
2018-12-25T08:05:07.735Z,2.70
2018-12-25T08:06:07.699Z,2.69
2018-12-25T08:07:07.690Z,2.71
2018-12-25T08:08:07.686Z,2.71
2018-12-25T08:09:07.676Z,2.81
2018-12-25T08:10:07.711Z,2.69
2018-12-25T08:11:07.670Z,2.81
2018-12-25T08:12:07.662Z,2.71
2018-12-25T08:13:07.657Z,2.77
2018-12-25T08:14:07.650Z,2.76
2018-12-25T08:15:07.670Z,2.76
2018-12-25T08:16:07.638Z,2.77
2018-12-25T08:17:07.633Z,2.82
2018-12-25T08:18:07.631Z,2.77
2018-12-25T08:19:07.618Z,2.74
2018-12-25T08:20:07.637Z,2.84
2018-12-25T08:21:07.601Z,2.85
2018-12-25T08:22:07.606Z,2.89
2018-12-25T08:23:07.589Z,2.91
2018-12-25T08:24:07.591Z,2.91
2018-12-25T08:25:07.602Z,2.92
2018-12-25T08:26:07.579Z,2.94
2018-12-25T08:27:07.569Z,2.88
2018-12-25T08:28:07.562Z,2.94
2018-12-25T08:29:07.586Z,3.02
2018-12-25T08:30:07.556Z,3.12
2018-12-25T08:31:08.271Z,3.06
2018-12-25T08:32:07.542Z,2.98
2018-12-25T08:33:07.535Z,3.13
2018-12-25T08:34:07.556Z,3.13
2018-12-25T08:35:07.552Z,3.15
2018-12-25T08:36:07.517Z,3.16
2018-12-25T08:37:07.516Z,3.15
2018-12-25T08:38:07.505Z,3.18
2018-12-25T08:39:07.501Z,3.15
2018-12-25T08:40:07.524Z,3.15
2018-12-25T08:41:07.488Z,3.16
2018-12-25T08:42:07.480Z,3.18
2018-12-25T08:43:07.472Z,3.16
2018-12-25T08:44:07.468Z,3.21
2018-12-25T08:45:07.491Z,3.28
2018-12-25T08:46:07.492Z,3.24
2018-12-25T08:47:07.457Z,3.20
2018-12-25T08:48:07.445Z,3.23
2018-12-25T08:49:07.444Z,3.20
2018-12-25T08:50:07.464Z,3.15
2018-12-25T08:51:07.432Z,3.16
2018-12-25T08:52:07.424Z,3.06
2018-12-25T08:53:08.302Z,3.10
2018-12-25T08:54:07.426Z,3.12
2018-12-25T08:55:07.437Z,3.03
2018-12-25T08:56:07.403Z,2.97
2018-12-25T08:57:07.395Z,3.05
2018-12-25T08:58:07.391Z,3.10
2018-12-25T08:59:07.391Z,3.06
2018-12-25T09:00:07.407Z,3.03
2018-12-25T09:01:07.377Z,3.18
2018-12-25T09:02:07.394Z,3.09
2018-12-25T09:03:07.363Z,3.15
2018-12-25T09:04:07.355Z,3.15
2018-12-25T09:05:07.377Z,3.18
2018-12-25T09:06:08.303Z,3.20
2018-12-25T09:07:07.372Z,3.13
2018-12-25T09:08:07.334Z,3.20
2018-12-25T09:09:07.330Z,3.20
2018-12-25T09:10:07.322Z,3.16
2018-12-25T09:11:07.345Z,3.18
2018-12-25T09:12:07.310Z,3.23
2018-12-25T09:13:07.307Z,3.24
2018-12-25T09:14:07.298Z,3.24
2018-12-25T09:15:07.337Z,3.27
2018-12-25T09:16:07.290Z,3.21
2018-12-25T09:17:07.281Z,3.20
2018-12-25T09:18:07.806Z,3.27
2018-12-25T09:19:07.269Z,3.23
2018-12-25T09:20:07.296Z,3.25
2018-12-25T09:21:07.257Z,3.21
2018-12-25T09:22:07.279Z,3.20
2018-12-25T09:23:07.250Z,3.20
2018-12-25T09:24:07.247Z,3.21
2018-12-25T09:25:07.239Z,3.27
2018-12-25T09:26:07.263Z,3.18
2018-12-25T09:27:07.227Z,3.21
2018-12-25T09:28:07.221Z,3.12
2018-12-25T09:29:07.213Z,3.23
2018-12-25T09:30:07.236Z,3.30
2018-12-25T09:31:07.209Z,3.21
2018-12-25T09:32:07.200Z,3.28
2018-12-25T09:33:07.193Z,3.30
2018-12-25T09:34:07.184Z,3.30
2018-12-25T09:35:07.211Z,3.23
2018-12-25T09:36:07.173Z,3.25
2018-12-25T09:37:07.198Z,3.27
2018-12-25T09:38:07.226Z,3.25
2018-12-25T09:39:07.156Z,3.23
2018-12-25T09:40:07.159Z,3.28
2018-12-25T09:41:07.174Z,3.27
2018-12-25T09:42:07.141Z,3.30
2018-12-25T09:43:07.134Z,3.34
2018-12-25T09:44:07.129Z,3.40
2018-12-25T09:45:07.124Z,3.36
2018-12-25T09:46:07.145Z,3.27
2018-12-25T09:47:07.111Z,3.33
2018-12-25T09:48:13.304Z,3.27
2018-12-25T09:49:07.099Z,3.34
2018-12-25T09:50:07.095Z,3.33
2018-12-25T09:51:07.120Z,3.40
2018-12-25T09:52:07.080Z,3.40
2018-12-25T09:53:07.083Z,3.39
2018-12-25T09:54:07.072Z,3.36
2018-12-25T09:55:07.808Z,3.43
2018-12-25T09:56:07.089Z,3.44
2018-12-25T09:57:07.057Z,3.50
2018-12-25T09:58:07.052Z,3.50
2018-12-25T09:59:07.047Z,3.43
2018-12-25T10:00:07.038Z,3.46
2018-12-25T10:01:07.064Z,3.42
2018-12-25T10:02:07.060Z,3.43
2018-12-25T10:03:07.027Z,3.46
2018-12-25T10:04:07.015Z,3.49
2018-12-25T10:05:07.009Z,3.42
2018-12-25T10:06:07.038Z,3.42
2018-12-25T10:07:06.996Z,3.44
2018-12-25T10:08:06.999Z,3.42
2018-12-25T10:09:06.992Z,3.39
2018-12-25T10:10:06.992Z,3.47
2018-12-25T10:11:07.000Z,3.44
2018-12-25T10:12:06.974Z,3.42
2018-12-25T10:13:06.969Z,3.47
2018-12-25T10:14:06.961Z,3.42
2018-12-25T10:15:06.954Z,3.44
2018-12-25T10:16:06.984Z,3.60
2018-12-25T10:17:06.946Z,3.54
2018-12-25T10:18:06.935Z,3.53
2018-12-25T10:19:06.933Z,3.54
2018-12-25T10:20:06.930Z,3.61
2018-12-25T10:21:06.946Z,3.53
2018-12-25T10:22:06.918Z,3.53
2018-12-25T10:23:06.914Z,3.57
2018-12-25T10:24:06.897Z,3.58
2018-12-25T10:25:06.901Z,3.62
2018-12-25T10:26:06.925Z,3.68
2018-12-25T10:27:06.921Z,3.54
2018-12-25T10:28:06.886Z,3.58
2018-12-25T10:29:06.882Z,3.60
2018-12-25T10:30:06.874Z,3.68
2018-12-25T10:31:06.896Z,3.64
2018-12-25T10:32:06.861Z,3.65
2018-12-25T10:33:06.856Z,3.70
2018-12-25T10:34:06.857Z,3.62
2018-12-25T10:35:06.849Z,3.67
2018-12-25T10:36:06.868Z,3.68
2018-12-25T10:37:06.836Z,3.58
2018-12-25T10:38:06.831Z,3.62
2018-12-25T10:39:06.826Z,3.60
2018-12-25T10:40:06.826Z,3.67
2018-12-25T10:41:06.848Z,3.54
2018-12-25T10:42:06.812Z,3.61
2018-12-25T10:43:06.804Z,3.61
2018-12-25T10:44:06.807Z,3.65
2018-12-25T10:45:06.792Z,3.64
2018-12-25T10:46:06.818Z,3.72
2018-12-25T10:47:06.784Z,3.75
2018-12-25T10:48:06.776Z,3.78
2018-12-25T10:49:06.771Z,3.83
2018-12-25T10:50:06.767Z,3.67
2018-12-25T10:51:06.842Z,3.78
2018-12-25T10:52:11.562Z,3.86
2018-12-25T10:53:06.751Z,3.89
2018-12-25T10:54:06.745Z,3.88
2018-12-25T10:55:06.736Z,3.76
2018-12-25T10:56:06.759Z,3.83
2018-12-25T10:57:06.730Z,3.86
2018-12-25T10:58:06.725Z,3.83
2018-12-25T10:59:06.719Z,3.85
2018-12-25T11:00:06.714Z,3.83
2018-12-25T11:01:06.735Z,3.92
2018-12-25T11:02:06.703Z,3.89
2018-12-25T11:03:06.729Z,3.94
2018-12-25T11:04:06.692Z,3.80
2018-12-25T11:05:06.685Z,3.83
2018-12-25T11:06:06.682Z,3.83
2018-12-25T11:07:06.706Z,3.80
2018-12-25T11:08:06.669Z,3.85
2018-12-25T11:09:06.667Z,3.79
2018-12-25T11:10:06.662Z,3.80
2018-12-25T11:11:06.657Z,3.80
2018-12-25T11:12:06.681Z,3.83
2018-12-25T11:13:06.700Z,3.76
2018-12-25T11:14:06.641Z,3.78
2018-12-25T11:15:06.638Z,3.82
2018-12-25T11:16:06.629Z,3.80
2018-12-25T11:17:06.626Z,3.78
2018-12-25T11:18:06.649Z,3.76
2018-12-25T11:19:06.617Z,3.71
2018-12-25T11:20:11.368Z,3.75
2018-12-25T11:21:06.607Z,3.76
2018-12-25T11:22:06.601Z,3.70
2018-12-25T11:23:06.628Z,3.82
2018-12-25T11:24:06.586Z,3.85
2018-12-25T11:25:06.586Z,3.79
2018-12-25T11:26:06.577Z,3.76
2018-12-25T11:27:06.575Z,3.82
2018-12-25T11:28:06.597Z,3.79
2018-12-25T11:29:06.565Z,3.78
2018-12-25T11:30:06.561Z,3.78
2018-12-25T11:31:06.552Z,3.75
2018-12-25T11:32:06.548Z,3.78
2018-12-25T11:33:06.566Z,3.79
2018-12-25T11:34:06.631Z,3.78
2018-12-25T11:35:06.528Z,3.65
2018-12-25T11:36:06.523Z,3.85
2018-12-25T11:37:07.307Z,3.83
2018-12-25T11:38:06.665Z,3.83
2018-12-25T11:39:06.515Z,3.72
2018-12-25T11:40:06.508Z,3.76
2018-12-25T11:41:06.500Z,3.78
2018-12-25T11:42:06.494Z,3.65
2018-12-25T11:43:06.524Z,3.83
2018-12-25T11:44:06.485Z,3.72
2018-12-25T11:45:06.482Z,3.68
2018-12-25T11:46:06.477Z,3.76
2018-12-25T11:47:06.475Z,3.76
2018-12-25T11:48:06.491Z,3.76
2018-12-25T11:49:06.459Z,3.71
2018-12-25T11:50:06.454Z,3.71
2018-12-25T11:51:06.443Z,3.67
2018-12-25T11:52:06.445Z,3.75
2018-12-25T11:53:06.463Z,3.72
2018-12-25T11:54:06.427Z,3.79
2018-12-25T11:55:06.426Z,3.86
2018-12-25T11:56:06.422Z,3.94
2018-12-25T11:57:06.419Z,3.88
2018-12-25T11:58:06.440Z,3.89
2018-12-25T11:59:06.412Z,3.86
2018-12-25T12:00:06.398Z,3.98
2018-12-25T12:01:06.394Z,3.88
2018-12-25T12:02:06.391Z,3.96
2018-12-25T12:03:06.416Z,3.96
2018-12-25T12:04:06.378Z,4.01
2018-12-25T12:05:06.377Z,3.98
2018-12-25T12:06:06.370Z,4.16
2018-12-25T12:07:06.369Z,4.12
2018-12-25T12:08:06.387Z,4.14
2018-12-25T12:09:06.382Z,4.19
2018-12-25T12:10:06.352Z,4.19
2018-12-25T12:11:06.345Z,4.15
2018-12-25T12:12:06.338Z,4.21
2018-12-25T12:13:06.334Z,4.21
2018-12-25T12:14:06.357Z,4.14
2018-12-25T12:15:06.326Z,4.18
2018-12-25T12:16:06.319Z,4.16
2018-12-25T12:17:06.314Z,4.12
2018-12-25T12:18:06.306Z,4.14
2018-12-25T12:19:06.338Z,4.12
2018-12-25T12:20:06.301Z,3.97
2018-12-25T12:21:06.293Z,3.98
2018-12-25T12:22:06.802Z,3.90
2018-12-25T12:23:06.285Z,3.90
2018-12-25T12:24:06.308Z,3.83
2018-12-25T12:25:06.273Z,3.79
2018-12-25T12:26:06.349Z,3.70
2018-12-25T12:27:06.266Z,3.61
2018-12-25T12:28:06.263Z,3.62
2018-12-25T12:29:06.281Z,3.60
2018-12-25T12:30:06.277Z,3.61
2018-12-25T12:31:06.246Z,3.70
2018-12-25T12:32:06.235Z,3.64
2018-12-25T12:33:06.230Z,3.61
2018-12-25T12:34:06.228Z,3.57
2018-12-25T12:35:06.254Z,3.67
2018-12-25T12:36:06.216Z,3.65
2018-12-25T12:37:06.213Z,3.61
2018-12-25T12:38:06.209Z,3.60
2018-12-25T12:39:06.228Z,3.62
2018-12-25T12:40:06.193Z,3.60
2018-12-25T12:41:06.191Z,3.62
2018-12-25T12:42:06.186Z,3.61
2018-12-25T12:43:06.180Z,3.70
2018-12-25T12:44:06.205Z,3.64
2018-12-25T12:45:06.171Z,3.67
2018-12-25T12:46:07.069Z,3.72
2018-12-25T12:47:06.162Z,3.68
2018-12-25T12:48:06.147Z,3.68
2018-12-25T12:49:06.175Z,3.71
2018-12-25T12:50:06.144Z,3.76
2018-12-25T12:51:06.133Z,3.80
2018-12-25T12:52:06.131Z,3.78
2018-12-25T12:53:06.127Z,3.79
2018-12-25T12:54:06.155Z,3.78
2018-12-25T12:55:06.803Z,3.85
2018-12-25T12:56:06.112Z,3.71
2018-12-25T12:57:06.108Z,3.71
2018-12-25T12:58:06.104Z,3.65
2018-12-25T12:59:06.123Z,3.78
2018-12-25T13:00:06.091Z,3.76
2018-12-25T13:01:06.083Z,3.82
2018-12-25T13:02:06.078Z,3.79
2018-12-25T13:03:06.074Z,3.80
2018-12-25T13:04:06.098Z,3.80
2018-12-25T13:05:06.066Z,3.82
2018-12-25T13:06:06.055Z,3.76
2018-12-25T13:07:06.057Z,3.76
2018-12-25T13:08:06.049Z,3.83
2018-12-25T13:09:06.071Z,3.80
2018-12-25T13:10:06.038Z,3.72
2018-12-25T13:11:06.033Z,3.80
2018-12-25T13:12:06.026Z,3.94
2018-12-25T13:13:06.022Z,3.89
2018-12-25T13:14:06.045Z,3.92
2018-12-25T13:15:06.038Z,3.88
2018-12-25T13:16:06.006Z,3.86
2018-12-25T13:17:05.997Z,3.89
2018-12-25T13:18:05.994Z,3.96